Time;durP1;ratioP1;P1;durP2;ratioP2;P2;SDS_P1;SDS_P2;PMS_P1;PMS_P2;Temp;Humidity;BMP_temperature;BMP_pressure;BME280_temperature;BME280_humidity;BME280_pressure;Samples;Min_cycle;Max_cycle;Signal;HPM_P1;HPM_P2
2023/03/07 00:01:03;;;;;;;65.57;24.80;;;-0.30;99.90;;;;;;4394020;28;660544;-67
2023/03/07 00:03:51;;;;;;;67.50;26.37;;;-0.20;99.90;;;;;;4409479;28;659810;-67
2023/03/07 00:06:38;;;;;;;61.83;25.07;;;-0.10;99.90;;;;;;4423032;28;660557;-67
2023/03/07 00:09:26;;;;;;;62.47;26.60;;;0.00;99.90;;;;;;4402199;28;660182;-67
2023/03/07 00:12:13;;;;;;;60.03;26.17;;;0.10;99.90;;;;;;4428324;28;659685;-67
2023/03/07 00:15:00;;;;;;;63.40;25.63;;;0.20;99.90;;;;;;4409322;28;658597;-67
2023/03/07 00:17:49;;;;;;;62.13;24.27;;;0.30;99.90;;;;;;4420840;28;658942;-67
2023/03/07 00:20:36;;;;;;;53.70;20.87;;;0.40;99.90;;;;;;4403337;28;658775;-68
2023/03/07 00:23:23;;;;;;;56.33;23.97;;;0.50;99.90;;;;;;4427377;28;658999;-67
2023/03/07 00:26:12;;;;;;;55.23;22.27;;;0.50;99.90;;;;;;4404550;28;658773;-67
2023/03/07 00:28:59;;;;;;;53.67;22.87;;;0.60;99.90;;;;;;4419320;28;658357;-68
2023/03/07 00:31:46;;;;;;;54.50;23.63;;;0.60;99.90;;;;;;4405514;28;659285;-67
2023/03/07 00:34:35;;;;;;;55.43;22.73;;;0.70;99.90;;;;;;4421202;28;658565;-67
2023/03/07 00:37:22;;;;;;;58.03;23.17;;;0.70;99.90;;;;;;4397960;28;658860;-67
2023/03/07 00:40:11;;;;;;;58.47;24.37;;;0.70;99.90;;;;;;4420539;28;658472;-67
2023/03/07 00:42:58;;;;;;;56.63;25.07;;;0.70;99.90;;;;;;4399193;28;659551;-67
2023/03/07 00:45:45;;;;;;;56.87;24.50;;;0.70;99.90;;;;;;4390159;28;658835;-68
2023/03/07 00:48:33;;;;;;;63.60;25.43;;;0.70;99.90;;;;;;4417373;28;659739;-67
2023/03/07 00:51:22;;;;;;;58.07;23.47;;;0.80;99.90;;;;;;4400478;28;659205;-68
2023/03/07 00:54:10;;;;;;;59.67;25.97;;;0.70;99.90;;;;;;4422136;28;658577;-67
2023/03/07 00:56:57;;;;;;;56.93;24.83;;;0.80;99.90;;;;;;4427122;28;659077;-67
2023/03/07 00:59:45;;;;;;;60.17;25.17;;;0.80;99.90;;;;;;4417486;28;658835;-67
2023/03/07 01:02:32;;;;;;;59.33;24.67;;;0.80;99.90;;;;;;4423314;28;658920;-67
2023/03/07 01:05:20;;;;;;;65.93;24.70;;;0.80;99.90;;;;;;4418830;28;658661;-67
2023/03/07 01:08:09;;;;;;;59.30;24.47;;;0.80;99.90;;;;;;4420377;28;658766;-67
2023/03/07 01:10:58;;;;;;;53.10;22.88;;;0.80;99.90;;;;;;4404413;28;658469;-67
2023/03/07 01:13:45;;;;;;;54.23;22.50;;;0.80;99.90;;;;;;4397820;28;658550;-67
2023/03/07 01:16:35;;;;;;;57.83;23.13;;;0.70;99.90;;;;;;4421508;28;659007;-67
2023/03/07 01:19:23;;;;;;;53.47;21.97;;;0.70;99.90;;;;;;4406928;28;658579;-68
2023/03/07 01:22:10;;;;;;;50.20;20.83;;;0.70;99.90;;;;;;4410865;28;658580;-68
2023/03/07 01:24:59;;;;;;;53.63;22.00;;;0.70;99.90;;;;;;4425408;28;658923;-67
2023/03/07 01:27:46;;;;;;;55.53;21.00;;;0.70;99.90;;;;;;4396383;28;658416;-67
2023/03/07 01:30:33;;;;;;;56.22;22.35;;;0.70;99.90;;;;;;4425199;28;658868;-67
2023/03/07 01:33:21;;;;;;;55.57;21.60;;;0.70;99.90;;;;;;4404014;28;658893;-67
2023/03/07 01:36:15;;;;;;;50.37;21.73;;;0.60;99.90;;;;;;4424103;28;659595;-67
2023/03/07 01:39:05;;;;;;;50.53;22.03;;;0.70;99.90;;;;;;4375064;28;659025;-67
2023/03/07 01:41:53;;;;;;;51.23;20.83;;;0.70;99.90;;;;;;4395612;28;659942;-67
2023/03/07 01:44:59;;;;;;;53.50;23.07;;;0.80;99.90;;;;;;4405732;28;659182;-67
2023/03/07 01:47:46;;;;;;;54.90;23.07;;;0.80;99.90;;;;;;4377648;28;659257;-67
2023/03/07 01:50:34;;;;;;;56.07;22.43;;;0.80;99.90;;;;;;4419390;28;658911;-67
2023/03/07 01:53:21;;;;;;;60.30;23.27;;;0.80;99.90;;;;;;4404514;28;658244;-67
2023/03/07 01:56:08;;;;;;;50.50;22.80;;;0.80;99.90;;;;;;4419147;28;658840;-68
2023/03/07 01:58:57;;;;;;;58.20;23.33;;;0.80;99.90;;;;;;4401933;28;659064;-68
2023/03/07 02:01:44;;;;;;;57.87;23.13;;;0.80;99.90;;;;;;4428456;28;658309;-67
2023/03/07 02:04:33;;;;;;;55.93;23.10;;;0.90;99.90;;;;;;4407271;28;659144;-67
2023/03/07 02:07:21;;;;;;;60.90;23.90;;;0.90;99.90;;;;;;4405348;28;659040;-67
2023/03/07 02:10:09;;;;;;;57.23;22.20;;;0.90;99.90;;;;;;4423427;28;659128;-67
2023/03/07 02:12:56;;;;;;;52.90;22.90;;;0.90;99.90;;;;;;4401773;28;658489;-67
2023/03/07 02:15:45;;;;;;;54.23;23.03;;;0.90;99.90;;;;;;4423330;28;659151;-67
2023/03/07 02:18:33;;;;;;;51.50;22.83;;;0.90;99.90;;;;;;4405422;28;659338;-67
2023/03/07 02:21:26;;;;;;;50.97;22.07;;;0.80;99.90;;;;;;4405392;28;659113;-67
2023/03/07 02:24:18;;;;;;;55.73;22.43;;;0.80;99.90;;;;;;4401601;28;659899;-67
2023/03/07 02:27:07;;;;;;;53.33;22.60;;;0.80;99.90;;;;;;4380021;28;659311;-67
2023/03/07 02:29:54;;;;;;;54.97;23.43;;;0.80;99.90;;;;;;4423306;28;658798;-67
2023/03/07 02:32:41;;;;;;;49.83;22.57;;;0.80;99.90;;;;;;4402478;28;658887;-67
2023/03/07 02:35:29;;;;;;;49.83;22.50;;;0.80;99.90;;;;;;4424369;28;659206;-67
2023/03/07 02:38:16;;;;;;;60.93;23.57;;;0.70;99.90;;;;;;4406402;28;658472;-67
2023/03/07 02:41:03;;;;;;;53.43;23.10;;;0.70;99.90;;;;;;4425563;28;658716;-67
2023/03/07 02:43:52;;;;;;;58.53;23.93;;;0.70;99.90;;;;;;4405535;28;658845;-67
2023/03/07 02:46:39;;;;;;;48.60;23.20;;;0.70;99.90;;;;;;4406395;28;658194;-67
2023/03/07 02:49:26;;;;;;;55.28;25.13;;;0.60;99.90;;;;;;4406348;28;658745;-67
2023/03/07 02:52:13;;;;;;;53.03;25.07;;;0.70;99.90;;;;;;4423475;28;658759;-67
2023/03/07 02:55:01;;;;;;;58.03;25.57;;;0.70;99.90;;;;;;4402179;28;659262;-67
2023/03/07 02:57:48;;;;;;;50.90;24.97;;;0.80;99.90;;;;;;4430668;28;659817;-67
2023/03/07 03:00:37;;;;;;;54.60;24.87;;;0.80;99.90;;;;;;4397815;28;658606;-67
2023/03/07 03:03:24;;;;;;;56.17;24.73;;;0.80;99.90;;;;;;4420200;28;658711;-67
2023/03/07 03:06:11;;;;;;;56.57;25.10;;;0.80;99.90;;;;;;4403285;28;658714;-67
2023/03/07 03:09:02;;;;;;;51.53;21.30;;;0.80;99.90;;;;;;4420916;28;658347;-67
2023/03/07 03:11:49;;;;;;;47.90;21.87;;;0.70;99.90;;;;;;4400597;28;659002;-67
2023/03/07 03:14:37;;;;;;;47.83;21.87;;;0.80;99.90;;;;;;4402849;28;660119;-67
2023/03/07 03:17:25;;;;;;;46.03;20.57;;;0.80;99.90;;;;;;4428165;28;658458;-67
2023/03/07 03:20:14;;;;;;;46.73;19.47;;;0.80;99.90;;;;;;4399437;28;659373;-67
2023/03/07 03:23:03;;;;;;;48.10;20.53;;;0.70;99.90;;;;;;4401750;28;659012;-68
2023/03/07 03:25:57;;;;;;;49.60;19.47;;;0.70;99.90;;;;;;4409123;28;658746;-67
2023/03/07 03:28:45;;;;;;;45.90;19.20;;;0.70;99.90;;;;;;4392956;28;658870;-67
2023/03/07 03:31:33;;;;;;;45.63;20.03;;;0.70;99.90;;;;;;4428170;28;658995;-67
2023/03/07 03:34:22;;;;;;;45.20;19.33;;;0.70;99.90;;;;;;4225742;28;659047;-68
2023/03/07 03:37:09;;;;;;;47.37;20.83;;;0.70;99.90;;;;;;4249478;28;658168;-68
2023/03/07 03:39:56;;;;;;;46.97;19.53;;;0.70;99.90;;;;;;4359708;28;658476;-67
2023/03/07 03:42:44;;;;;;;48.10;21.03;;;0.70;99.90;;;;;;4420904;28;658418;-67
2023/03/07 03:45:32;;;;;;;47.77;21.53;;;0.70;99.90;;;;;;4407355;28;658715;-67
2023/03/07 03:48:22;;;;;;;48.20;20.10;;;0.70;99.90;;;;;;4429078;28;658253;-67
2023/03/07 03:51:15;;;;;;;42.67;19.30;;;0.70;99.90;;;;;;4409050;28;658644;-67
2023/03/07 03:54:05;;;;;;;51.37;20.47;;;0.70;99.90;;;;;;4376867;28;658962;-67
2023/03/07 03:56:56;;;;;;;51.93;21.07;;;0.70;99.90;;;;;;4400654;28;659045;-67
2023/03/07 03:59:43;;;;;;;44.00;18.87;;;0.70;99.90;;;;;;4399274;28;659740;-67
2023/03/07 04:02:34;;;;;;;83.67;21.93;;;0.70;99.90;;;;;;4406635;28;658977;-67
2023/03/07 04:05:24;;;;;;;43.37;20.47;;;0.70;99.90;;;;;;4404161;28;658496;-67
2023/03/07 04:08:17;;;;;;;45.30;20.93;;;0.70;99.90;;;;;;4405138;28;658652;-67
2023/03/07 04:11:08;;;;;;;43.07;19.60;;;0.70;99.90;;;;;;4399889;28;658720;-67
2023/03/07 04:13:59;;;;;;;44.33;19.33;;;0.70;99.90;;;;;;4389684;28;658807;-67
2023/03/07 04:16:50;;;;;;;45.83;20.10;;;0.70;99.90;;;;;;4406201;28;659473;-68
2023/03/07 04:19:41;;;;;;;46.28;21.33;;;0.70;99.90;;;;;;4402450;28;659184;-67
2023/03/07 04:22:32;;;;;;;48.07;21.23;;;0.70;99.90;;;;;;4401324;28;659014;-67
2023/03/07 04:25:24;;;;;;;45.13;20.37;;;0.70;99.90;;;;;;4403947;28;658922;-67
2023/03/07 04:28:14;;;;;;;51.67;21.07;;;0.70;99.90;;;;;;4378939;28;659171;-67
2023/03/07 04:31:05;;;;;;;48.37;21.20;;;0.70;99.90;;;;;;4402813;28;659126;-67
2023/03/07 04:33:56;;;;;;;46.33;20.80;;;0.70;99.90;;;;;;4403364;28;659882;-67
2023/03/07 04:36:45;;;;;;;48.93;21.73;;;0.70;99.90;;;;;;4400030;28;659281;-67
2023/03/07 04:39:32;;;;;;;49.30;22.63;;;0.70;99.90;;;;;;4394379;28;659229;-67
2023/03/07 04:42:21;;;;;;;46.30;21.97;;;0.70;99.90;;;;;;4420204;28;658913;-67
2023/03/07 04:45:09;;;;;;;49.72;22.02;;;0.70;99.90;;;;;;4388297;28;658210;-67
2023/03/07 04:47:57;;;;;;;51.87;23.03;;;0.70;99.90;;;;;;4396785;28;658669;-67
2023/03/07 04:50:44;;;;;;;47.53;20.80;;;0.70;99.90;;;;;;4424234;28;658581;-67
2023/03/07 04:53:31;;;;;;;53.33;23.77;;;0.70;99.90;;;;;;4402525;28;659199;-67
2023/03/07 04:56:18;;;;;;;53.07;23.93;;;0.70;99.90;;;;;;4423164;28;658927;-67
2023/03/07 04:59:07;;;;;;;56.93;23.53;;;0.70;99.90;;;;;;4401725;28;659485;-67
2023/03/07 05:01:54;;;;;;;64.87;26.00;;;0.70;99.90;;;;;;4427118;28;659036;-67
2023/03/07 05:04:41;;;;;;;51.40;22.97;;;0.70;99.90;;;;;;4401527;28;658467;-67
2023/03/07 05:07:29;;;;;;;60.33;24.63;;;0.70;99.90;;;;;;4420447;28;659361;-67
2023/03/07 05:10:17;;;;;;;56.00;24.50;;;0.70;99.90;;;;;;4404390;28;659016;-67
2023/03/07 05:13:04;;;;;;;53.87;23.10;;;0.70;99.90;;;;;;4418489;28;658283;-68
2023/03/07 05:15:53;;;;;;;53.70;23.17;;;0.70;99.90;;;;;;4402902;28;658449;-68
2023/03/07 05:18:40;;;;;;;51.60;23.27;;;0.60;99.90;;;;;;4403755;28;658339;-67
2023/03/07 05:21:28;;;;;;;47.60;21.93;;;0.50;99.90;;;;;;4418487;28;660029;-68
2023/03/07 05:24:15;;;;;;;54.05;22.95;;;0.50;99.90;;;;;;4403982;28;658945;-68
2023/03/07 05:27:02;;;;;;;53.20;23.83;;;0.50;99.90;;;;;;4429560;28;659132;-67
2023/03/07 05:29:50;;;;;;;54.40;24.60;;;0.50;99.90;;;;;;4417864;28;658480;-68
2023/03/07 05:32:39;;;;;;;62.87;26.23;;;0.50;99.90;;;;;;4420766;28;659075;-68
2023/03/07 05:35:26;;;;;;;71.80;27.17;;;0.60;99.90;;;;;;4399563;28;658599;-67
2023/03/07 05:38:13;;;;;;;74.00;27.70;;;0.60;99.90;;;;;;4423322;28;659888;-67
2023/03/07 05:41:01;;;;;;;84.43;29.57;;;0.60;99.90;;;;;;4402522;28;659275;-68
2023/03/07 05:43:48;;;;;;;61.43;24.67;;;0.70;99.90;;;;;;4425212;28;659563;-68
2023/03/07 05:46:35;;;;;;;116.97;31.40;;;0.60;99.90;;;;;;4409947;28;658478;-68
2023/03/07 05:49:24;;;;;;;106.13;31.10;;;0.70;99.90;;;;;;4424601;28;661091;-67
2023/03/07 05:52:11;;;;;;;117.77;32.77;;;0.60;99.90;;;;;;4406155;28;659670;-68
2023/03/07 05:54:59;;;;;;;133.23;36.70;;;0.60;99.90;;;;;;4421778;28;659891;-67
2023/03/07 05:57:46;;;;;;;119.63;37.30;;;0.60;99.90;;;;;;4397992;28;660021;-67
2023/03/07 06:00:33;;;;;;;245.47;57.93;;;0.60;99.90;;;;;;4420728;28;660002;-68
2023/03/07 06:03:20;;;;;;;175.33;46.87;;;0.60;99.90;;;;;;4409519;28;659397;-67
2023/03/07 06:06:11;;;;;;;147.67;44.33;;;0.60;99.90;;;;;;4419490;28;659904;-67
2023/03/07 06:08:58;;;;;;;214.07;53.27;;;0.60;99.90;;;;;;4398759;28;659922;-67
2023/03/07 06:11:45;;;;;;;161.50;45.87;;;0.70;99.90;;;;;;4404133;28;659853;-68
2023/03/07 06:14:32;;;;;;;158.20;44.37;;;0.60;99.90;;;;;;4429974;28;659698;-68
2023/03/07 06:17:20;;;;;;;105.80;36.30;;;0.60;99.90;;;;;;4421329;28;659705;-67
2023/03/07 06:20:09;;;;;;;108.30;36.90;;;0.70;99.90;;;;;;4428190;28;659866;-67
2023/03/07 06:22:57;;;;;;;74.43;32.20;;;0.70;99.90;;;;;;4396352;28;659822;-67
2023/03/07 06:25:44;;;;;;;62.70;26.60;;;0.80;99.90;;;;;;4422318;28;658590;-67
2023/03/07 06:28:32;;;;;;;68.33;28.63;;;0.90;99.90;;;;;;4408182;28;658668;-67
2023/03/07 06:31:19;;;;;;;65.27;25.10;;;0.90;99.90;;;;;;4430114;28;658711;-67
2023/03/07 06:34:07;;;;;;;59.33;25.93;;;1.00;99.90;;;;;;4405948;28;659943;-67
2023/03/07 06:36:54;;;;;;;59.50;25.77;;;0.90;99.90;;;;;;4425361;28;659567;-67
2023/03/07 06:39:43;;;;;;;79.00;30.00;;;0.90;99.90;;;;;;4399821;28;658760;-67
2023/03/07 06:42:30;;;;;;;76.53;29.87;;;0.90;99.90;;;;;;4401454;28;658503;-67
2023/03/07 06:45:18;;;;;;;68.47;28.80;;;1.10;99.90;;;;;;4426290;28;659507;-67
2023/03/07 06:48:05;;;;;;;62.58;26.25;;;1.10;99.90;;;;;;4416773;28;658827;-67
2023/03/07 06:50:53;;;;;;;56.03;24.60;;;1.20;99.90;;;;;;4422302;28;659026;-67
2023/03/07 06:53:41;;;;;;;54.70;22.80;;;1.30;99.90;;;;;;4417315;28;658863;-67
2023/03/07 06:56:30;;;;;;;52.20;20.50;;;1.30;99.90;;;;;;4428161;28;659774;-66
2023/03/07 06:59:18;;;;;;;43.33;19.50;;;1.40;99.90;;;;;;4404007;28;659176;-71
2023/03/07 07:02:05;;;;;;;45.80;20.83;;;1.40;99.90;;;;;;4408803;28;659502;-71
2023/03/07 07:04:53;;;;;;;52.63;23.20;;;1.40;99.90;;;;;;4429630;28;659785;-71
2023/03/07 07:07:40;;;;;;;49.30;22.17;;;1.50;99.90;;;;;;4412930;28;658658;-71
2023/03/07 07:10:27;;;;;;;37.33;15.67;;;1.50;99.90;;;;;;4419498;28;659461;-73
2023/03/07 07:13:17;;;;;;;45.70;19.63;;;1.70;99.90;;;;;;4419912;28;659120;-72
2023/03/07 07:16:05;;;;;;;41.37;18.53;;;1.70;99.90;;;;;;4420197;28;658167;-72
2023/03/07 07:18:52;;;;;;;46.27;18.47;;;1.80;99.90;;;;;;4407370;28;659793;-71
2023/03/07 07:21:40;;;;;;;44.57;18.63;;;1.80;99.90;;;;;;4422145;28;658578;-72
2023/03/07 07:24:27;;;;;;;38.60;17.20;;;1.90;99.90;;;;;;4421648;28;659557;-71
2023/03/07 07:27:15;;;;;;;37.87;17.43;;;1.90;99.90;;;;;;4426744;28;658232;-72
2023/03/07 07:30:04;;;;;;;30.27;14.43;;;2.10;99.90;;;;;;4428279;28;659456;-71
2023/03/07 07:32:52;;;;;;;36.17;15.77;;;2.30;99.90;;;;;;4405263;28;659425;-71
2023/03/07 07:35:39;;;;;;;33.87;15.90;;;2.30;99.90;;;;;;4419796;28;658504;-71
2023/03/07 07:38:26;;;;;;;33.37;14.67;;;2.30;99.90;;;;;;4405945;28;659285;-71
2023/03/07 07:41:13;;;;;;;29.97;12.73;;;2.30;99.90;;;;;;4429738;28;658668;-71
2023/03/07 07:44:00;;;;;;;35.40;15.17;;;2.50;99.90;;;;;;4406522;28;658952;-71
2023/03/07 07:46:49;;;;;;;34.53;14.57;;;2.50;99.90;;;;;;4420710;28;659553;-71
2023/03/07 07:49:36;;;;;;;35.40;15.88;;;2.70;99.90;;;;;;4413776;28;658709;-72
2023/03/07 07:52:23;;;;;;;30.23;13.60;;;2.80;99.90;;;;;;4430756;28;659139;-71
2023/03/07 07:55:12;;;;;;;27.03;11.67;;;2.90;99.90;;;;;;4404023;28;659731;-72
2023/03/07 07:57:59;;;;;;;29.73;13.17;;;2.80;99.90;;;;;;4425389;28;658567;-71
2023/03/07 08:00:47;;;;;;;30.87;13.57;;;2.90;99.90;;;;;;4405593;28;658924;-71
2023/03/07 08:03:35;;;;;;;17.40;8.43;;;3.00;99.90;;;;;;4421799;28;657918;-74
2023/03/07 08:06:23;;;;;;;31.00;12.80;;;3.00;99.90;;;;;;4403454;28;658070;-71
2023/03/07 08:09:11;;;;;;;31.47;14.10;;;3.00;99.90;;;;;;4405402;28;658774;-72
2023/03/07 08:11:58;;;;;;;24.67;11.23;;;3.10;99.90;;;;;;4426199;28;659597;-71
2023/03/07 08:14:45;;;;;;;32.27;14.37;;;3.10;99.90;;;;;;4398504;28;658754;-71
2023/03/07 08:17:32;;;;;;;34.23;14.23;;;3.30;99.90;;;;;;4423786;28;659611;-72
2023/03/07 08:20:24;;;;;;;33.07;14.83;;;3.50;99.90;;;;;;4430727;28;658646;-71
2023/03/07 08:23:11;;;;;;;26.63;12.13;;;3.50;99.90;;;;;;4405279;28;659767;-71
2023/03/07 08:26:02;;;;;;;23.87;10.07;;;3.20;99.90;;;;;;4421665;28;659386;-72
2023/03/07 08:28:49;;;;;;;28.13;12.17;;;3.10;99.90;;;;;;4406916;28;658649;-72
2023/03/07 08:31:36;;;;;;;27.87;13.10;;;3.30;99.90;;;;;;4398607;28;658650;-71
2023/03/07 08:34:23;;;;;;;27.67;13.67;;;3.20;99.90;;;;;;4426040;28;660151;-72
2023/03/07 08:37:12;;;;;;;25.13;12.63;;;3.00;99.90;;;;;;4400897;28;659740;-72
2023/03/07 08:39:59;;;;;;;33.22;15.23;;;3.20;99.90;;;;;;4425608;28;659298;-72
2023/03/07 08:42:46;;;;;;;24.80;11.00;;;3.50;99.90;;;;;;4394808;28;658574;-72
2023/03/07 08:45:34;;;;;;;32.77;12.97;;;3.40;99.90;;;;;;4419435;28;658973;-72
2023/03/07 08:48:21;;;;;;;35.83;15.33;;;3.70;99.90;;;;;;4403773;28;658959;-72
2023/03/07 08:51:09;;;;;;;29.47;14.60;;;3.90;99.90;;;;;;4424077;28;658467;-73
2023/03/07 08:53:58;;;;;;;32.60;14.03;;;4.00;99.90;;;;;;4404402;28;659216;-72
2023/03/07 08:56:45;;;;;;;22.42;11.38;;;3.90;99.90;;;;;;4417041;28;658348;-72
2023/03/07 08:59:32;;;;;;;23.73;11.03;;;4.10;99.90;;;;;;4419235;28;659524;-72
2023/03/07 09:02:21;;;;;;;23.50;10.07;;;4.00;99.90;;;;;;4418573;28;658559;-72
2023/03/07 09:05:09;;;;;;;21.27;9.27;;;4.30;99.90;;;;;;4431044;28;659167;-71
2023/03/07 09:07:57;;;;;;;26.83;11.10;;;4.30;99.90;;;;;;4407443;28;657615;-72
2023/03/07 09:10:45;;;;;;;18.87;8.57;;;4.30;99.90;;;;;;4420221;28;658518;-73
2023/03/07 09:13:32;;;;;;;22.90;11.47;;;4.30;99.90;;;;;;4400924;28;657863;-73
2023/03/07 09:16:21;;;;;;;27.73;12.00;;;4.40;99.90;;;;;;4417789;28;658726;-72
2023/03/07 09:19:08;;;;;;;31.20;13.10;;;4.10;99.90;;;;;;4428335;28;659165;-73
2023/03/07 09:21:55;;;;;;;22.55;10.38;;;4.50;99.90;;;;;;4409106;28;659333;-72
2023/03/07 09:24:42;;;;;;;27.70;11.93;;;4.30;99.90;;;;;;4427113;28;658689;-72
2023/03/07 09:27:32;;;;;;;23.17;10.67;;;4.70;99.90;;;;;;4412675;28;658876;-72
2023/03/07 09:30:19;;;;;;;22.50;11.40;;;4.80;99.90;;;;;;4425319;28;658415;-73
2023/03/07 09:33:06;;;;;;;19.67;9.03;;;4.80;99.90;;;;;;4401322;28;659109;-73
2023/03/07 09:35:53;;;;;;;15.60;7.10;;;4.90;99.90;;;;;;4420280;28;658023;-73
2023/03/07 09:38:41;;;;;;;22.57;10.00;;;4.60;99.90;;;;;;4402050;28;659053;-73
2023/03/07 09:41:42;;;;;;;22.40;10.07;;;4.50;99.90;;;;;;4411508;28;659188;-72
2023/03/07 09:44:57;;;;;;;19.77;9.07;;;4.50;99.90;;;;;;4282656;28;659129;-72
2023/03/07 09:48:12;;;;;;;21.77;7.57;;;4.50;99.90;;;;;;4264635;28;657620;-72
2023/03/07 09:51:01;;;;;;;18.80;6.83;;;4.40;99.90;;;;;;4311646;28;658106;-72
2023/03/07 09:53:50;;;;;;;17.30;8.30;;;4.40;99.90;;;;;;4393835;28;658336;-72
2023/03/07 09:56:40;;;;;;;19.75;9.25;;;4.50;99.90;;;;;;4400969;28;658925;-72
2023/03/07 09:59:31;;;;;;;17.27;8.70;;;4.40;99.90;;;;;;4402297;28;657876;-74
2023/03/07 10:02:22;;;;;;;17.27;7.53;;;4.30;99.90;;;;;;4404382;28;657926;-73
2023/03/07 10:05:11;;;;;;;21.73;9.30;;;4.20;99.90;;;;;;4395321;28;657943;-73
2023/03/07 10:07:59;;;;;;;20.25;9.07;;;4.30;99.90;;;;;;4385618;28;658018;-74
2023/03/07 10:10:49;;;;;;;16.20;7.63;;;4.20;99.90;;;;;;4405580;28;657764;-73
2023/03/07 10:13:43;;;;;;;22.47;9.87;;;4.10;99.90;;;;;;4398949;28;658264;-72
2023/03/07 10:16:32;;;;;;;19.97;9.50;;;4.10;99.90;;;;;;4388682;28;657634;-73
2023/03/07 10:19:25;;;;;;;22.23;10.03;;;4.00;99.90;;;;;;4420637;28;657778;-73
2023/03/07 10:22:16;;;;;;;23.77;10.27;;;3.90;99.90;;;;;;4403772;28;659661;-74
2023/03/07 10:25:12;;;;;;;25.00;11.97;;;3.90;99.90;;;;;;4407207;28;658882;-73
2023/03/07 10:28:01;;;;;;;16.67;7.43;;;3.80;99.90;;;;;;4401978;28;658526;-75
2023/03/07 10:30:48;;;;;;;16.33;8.13;;;3.90;99.90;;;;;;4399017;28;658561;-75
2023/03/07 10:33:35;;;;;;;18.23;8.60;;;4.00;99.90;;;;;;4402301;28;657491;-72
2023/03/07 10:36:30;;;;;;;21.03;9.63;;;3.90;99.90;;;;;;4426827;28;658973;-73
2023/03/07 10:39:24;;;;;;;16.77;7.33;;;4.00;99.90;;;;;;4373459;28;657840;-73
2023/03/07 10:42:12;;;;;;;18.97;8.07;;;4.20;99.90;;;;;;4385599;28;658593;-73
2023/03/07 10:44:59;;;;;;;23.37;10.80;;;4.30;99.90;;;;;;4429430;28;658272;-72
2023/03/07 10:47:46;;;;;;;21.80;9.60;;;4.60;99.90;;;;;;4407457;28;658785;-74
2023/03/07 10:50:38;;;;;;;15.27;7.07;;;4.80;99.90;;;;;;4423022;28;658687;-75
2023/03/07 10:53:27;;;;;;;18.13;8.17;;;5.00;99.90;;;;;;4379792;28;657618;-72
2023/03/07 10:56:15;;;;;;;16.43;7.77;;;5.30;99.10;;;;;;4415375;28;657472;-74
2023/03/07 10:59:03;;;;;;;15.13;7.85;;;5.70;98.50;;;;;;4404372;28;659020;-72
2023/03/07 11:01:54;;;;;;;21.00;9.15;;;5.70;97.40;;;;;;4400891;28;658846;-72
2023/03/07 11:04:46;;;;;;;14.73;6.80;;;5.90;99.20;;;;;;4403576;28;658123;-75
2023/03/07 11:07:34;;;;;;;19.67;8.17;;;5.50;96.90;;;;;;4402704;28;657903;-73
2023/03/07 11:10:31;;;;;;;20.70;9.07;;;5.30;97.80;;;;;;4401254;28;658466;-72
2023/03/07 11:13:19;;;;;;;17.10;8.13;;;4.90;98.50;;;;;;4404550;28;657815;-73
2023/03/07 11:16:16;;;;;;;19.40;9.77;;;4.60;99.00;;;;;;4402663;28;657829;-72
2023/03/07 11:19:04;;;;;;;21.80;10.13;;;4.50;99.90;;;;;;4397707;28;657795;-72
2023/03/07 11:21:53;;;;;;;17.10;8.00;;;4.50;99.90;;;;;;4406607;28;659400;-72
2023/03/07 11:24:40;;;;;;;21.97;9.80;;;4.30;99.90;;;;;;4416095;28;657543;-72
2023/03/07 11:27:34;;;;;;;20.00;10.13;;;4.30;99.90;;;;;;4434933;28;657495;-73
2023/03/07 11:30:26;;;;;;;19.80;8.68;;;4.40;99.90;;;;;;4408406;28;658727;-72
2023/03/07 11:33:15;;;;;;;21.10;8.30;;;4.50;99.90;;;;;;4400210;28;657961;-72
2023/03/07 11:36:03;;;;;;;14.60;7.07;;;4.30;99.90;;;;;;4397518;28;658015;-75
2023/03/07 11:38:58;;;;;;;14.90;7.33;;;4.40;99.90;;;;;;4404690;28;657597;-71
2023/03/07 11:41:47;;;;;;;18.50;7.13;;;4.40;99.90;;;;;;4376803;28;657294;-72
2023/03/07 11:44:38;;;;;;;17.17;8.30;;;4.50;99.90;;;;;;4421368;28;657683;-75
2023/03/07 11:47:33;;;;;;;15.27;7.37;;;4.70;99.90;;;;;;4384752;28;657758;-72
2023/03/07 11:50:22;;;;;;;16.20;7.00;;;4.80;99.80;;;;;;4378815;28;658904;-72
2023/03/07 11:53:26;;;;;;;26.80;10.70;;;5.10;99.20;;;;;;4424872;28;657504;-75
2023/03/07 11:56:19;;;;;;;20.07;9.97;;;5.10;99.90;;;;;;4400705;28;658663;-73
2023/03/07 11:59:31;;;;;;;21.77;8.77;;;5.20;98.00;;;;;;4402203;28;658331;-74
2023/03/07 12:02:41;;;;;;;19.20;8.80;;;5.10;99.30;;;;;;4392337;28;658325;-72
2023/03/07 12:05:35;;;;;;;14.80;7.47;;;5.00;99.40;;;;;;4397160;28;658013;-72
2023/03/07 12:08:33;;;;;;;19.57;8.80;;;5.10;98.80;;;;;;4385554;28;659250;-74
2023/03/07 12:11:28;;;;;;;17.83;8.07;;;5.00;99.90;;;;;;4379653;28;657482;-73
2023/03/07 12:14:21;;;;;;;16.80;8.53;;;5.10;98.50;;;;;;4390322;28;657539;-72
2023/03/07 12:17:15;;;;;;;14.17;6.77;;;4.90;99.10;;;;;;4401596;28;658439;-76
2023/03/07 12:20:24;;;;;;;22.23;9.63;;;5.00;99.40;;;;;;4397468;28;657555;-75
2023/03/07 12:23:15;;;;;;;22.53;10.10;;;5.10;99.70;;;;;;4387665;28;657874;-72
2023/03/07 12:26:05;;;;;;;24.37;10.33;;;5.20;99.90;;;;;;4401561;28;659919;-72
2023/03/07 12:28:53;;;;;;;18.70;9.10;;;5.20;99.90;;;;;;4397020;28;658606;-72
2023/03/07 12:31:42;;;;;;;17.63;7.83;;;5.30;99.90;;;;;;4400651;28;657359;-73
2023/03/07 12:34:32;;;;;;;23.87;10.10;;;5.30;99.10;;;;;;4421880;28;657088;-73
2023/03/07 12:37:21;;;;;;;13.10;6.13;;;5.00;99.30;;;;;;4398064;28;658901;-73
2023/03/07 12:40:13;;;;;;;15.23;7.80;;;4.90;98.30;;;;;;4397472;28;657562;-73
2023/03/07 12:43:02;;;;;;;17.63;8.10;;;4.80;98.90;;;;;;4398637;28;657423;-75
2023/03/07 12:45:51;;;;;;;19.27;9.27;;;5.10;99.10;;;;;;4415153;28;657701;-76
2023/03/07 12:48:40;;;;;;;21.57;9.90;;;5.10;98.40;;;;;;4403096;28;658270;-77
2023/03/07 12:51:29;;;;;;;20.10;8.90;;;5.40;99.90;;;;;;4401972;28;658239;-74
2023/03/07 12:54:21;;;;;;;23.00;9.80;;;5.40;98.00;;;;;;4400863;28;657613;-75
2023/03/07 12:57:11;;;;;;;21.60;10.10;;;5.50;98.60;;;;;;4398278;28;658471;-73
2023/03/07 12:59:59;;;;;;;19.47;7.23;;;5.30;98.30;;;;;;4399540;28;659571;-71
2023/03/07 13:02:49;;;;;;;20.77;7.43;;;5.20;97.80;;;;;;4401496;28;657546;-75
2023/03/07 13:05:37;;;;;;;18.00;8.43;;;5.10;97.80;;;;;;4391434;28;658084;-74
2023/03/07 13:08:24;;;;;;;20.13;9.73;;;5.10;99.70;;;;;;4420198;28;657631;-73
2023/03/07 13:11:20;;;;;;;17.20;8.23;;;5.00;99.70;;;;;;4398040;28;658198;-73
2023/03/07 13:14:09;;;;;;;21.77;9.80;;;4.90;98.50;;;;;;4398416;28;658130;-73
2023/03/07 13:16:57;;;;;;;23.70;9.17;;;4.90;99.90;;;;;;4403501;28;657581;-75
2023/03/07 13:19:53;;;;;;;18.13;7.70;;;4.90;99.90;;;;;;4425711;28;657631;-72
2023/03/07 13:23:00;;;;;;;18.87;8.70;;;4.80;99.90;;;;;;4373635;28;657758;-72
2023/03/07 13:25:59;;;;;;;18.10;8.50;;;4.90;99.90;;;;;;4371678;28;658919;-72
2023/03/07 13:28:50;;;;;;;20.03;8.73;;;4.80;99.90;;;;;;4396911;28;657827;-72
2023/03/07 13:31:46;;;;;;;20.37;9.23;;;4.80;99.60;;;;;;4391956;28;658818;-74
2023/03/07 13:34:50;;;;;;;18.60;9.43;;;4.90;99.90;;;;;;4393626;28;657495;-77
2023/03/07 13:37:53;;;;;;;26.10;9.83;;;5.00;99.70;;;;;;4372508;28;657998;-72
2023/03/07 13:40:53;;;;;;;19.50;8.93;;;5.00;99.90;;;;;;4378398;28;657921;-72
2023/03/07 13:43:58;;;;;;;15.30;7.00;;;5.00;99.90;;;;;;4384826;28;657888;-72
2023/03/07 13:46:47;;;;;;;18.27;8.53;;;5.00;99.40;;;;;;4372934;28;657127;-74
2023/03/07 13:49:52;;;;;;;22.05;10.52;;;5.00;99.90;;;;;;4418753;28;657289;-74
2023/03/07 13:52:42;;;;;;;20.27;9.23;;;5.00;99.40;;;;;;4401273;28;658130;-72
2023/03/07 13:55:33;;;;;;;19.00;8.87;;;4.90;99.50;;;;;;4397977;28;657504;-73
2023/03/07 13:58:23;;;;;;;21.27;8.13;;;4.90;99.90;;;;;;4404369;28;657546;-72
2023/03/07 14:01:16;;;;;;;19.70;8.43;;;4.90;99.90;;;;;;4405589;28;658357;-73
2023/03/07 14:04:06;;;;;;;17.23;8.43;;;5.10;99.40;;;;;;4398380;28;658308;-75
2023/03/07 14:06:54;;;;;;;23.13;11.20;;;5.30;99.90;;;;;;4401859;28;658637;-76
2023/03/07 14:09:43;;;;;;;20.17;9.40;;;5.40;99.90;;;;;;4404342;28;659382;-76
2023/03/07 14:12:34;;;;;;;23.90;10.40;;;5.40;99.90;;;;;;4415090;28;657659;-73
2023/03/07 14:15:24;;;;;;;21.10;10.20;;;5.90;99.90;;;;;;4407004;28;658781;-75
2023/03/07 14:18:19;;;;;;;17.40;8.10;;;6.50;96.90;;;;;;4399254;28;660113;-76
2023/03/07 14:21:09;;;;;;;22.13;9.30;;;6.70;95.20;;;;;;4407883;28;657867;-73